sensor_id;sensor_type;location;lat;lon;timestamp;pressure;altitude;pressure_sealevel;temperature;humidity
52625;BME280;38519;52.540;13.410;2023-04-01T00:00:19;98790.72;;;8.77;100.00
52625;BME280;38519;52.540;13.410;2023-04-01T00:02:45;98789.66;;;8.73;100.00
52625;BME280;38519;52.540;13.410;2023-04-01T00:05:13;98783.88;;;8.79;100.00
52625;BME280;38519;52.540;13.410;2023-04-01T00:07:39;98785.28;;;8.72;100.00
52625;BME280;38519;52.540;13.410;2023-04-01T00:10:08;98786.25;;;8.74;100.00
52625;BME280;38519;52.540;13.410;2023-04-01T00:12:34;98791.59;;;8.77;100.00
52625;BME280;38519;52.540;13.410;2023-04-01T00:14:59;98786.09;;;8.71;100.00
52625;BME280;38519;52.540;13.410;2023-04-01T00:17:25;98782.22;;;8.63;100.00
52625;BME280;38519;52.540;13.410;2023-04-01T00:19:50;98786.69;;;8.65;100.00
52625;BME280;38519;52.540;13.410;2023-04-01T00:22:15;98782.53;;;8.69;100.00
52625;BME280;38519;52.540;13.410;2023-04-01T00:24:41;98789.81;;;8.76;100.00
52625;BME280;38519;52.540;13.410;2023-04-01T00:27:06;98790.72;;;8.77;100.00
52625;BME280;38519;52.540;13.410;2023-04-01T00:29:33;98791.38;;;8.72;100.00
52625;BME280;38519;52.540;13.410;2023-04-01T00:31:58;98782.75;;;8.73;100.00
52625;BME280;38519;52.540;13.410;2023-04-01T00:34:23;98787.88;;;8.72;100.00
52625;BME280;38519;52.540;13.410;2023-04-01T00:36:50;98780.00;;;8.70;100.00
52625;BME280;38519;52.540;13.410;2023-04-01T00:39:17;98784.59;;;8.58;100.00
52625;BME280;38519;52.540;13.410;2023-04-01T00:41:42;98779.63;;;8.63;100.00
52625;BME280;38519;52.540;13.410;2023-04-01T00:44:16;98781.34;;;8.62;100.00
52625;BME280;38519;52.540;13.410;2023-04-01T00:46:43;98780.72;;;8.68;100.00
52625;BME280;38519;52.540;13.410;2023-04-01T00:49:08;98785.69;;;8.63;100.00
52625;BME280;38519;52.540;13.410;2023-04-01T00:51:34;98782.53;;;8.69;100.00
52625;BME280;38519;52.540;13.410;2023-04-01T00:54:01;98787.81;;;8.70;100.00
52625;BME280;38519;52.540;13.410;2023-04-01T00:56:35;98789.22;;;8.64;100.00
52625;BME280;38519;52.540;13.410;2023-04-01T00:59:03;98788.13;;;8.77;100.00
52625;BME280;38519;52.540;13.410;2023-04-01T01:01:29;98791.97;;;8.85;100.00
52625;BME280;38519;52.540;13.410;2023-04-01T01:03:55;98790.88;;;8.80;100.00
52625;BME280;38519;52.540;13.410;2023-04-01T01:06:42;98787.72;;;8.87;100.00
52625;BME280;38519;52.540;13.410;2023-04-01T01:16:43;98787.97;;;8.73;100.00
52625;BME280;38519;52.540;13.410;2023-04-01T01:32:17;98789.50;;;8.70;100.00
52625;BME280;38519;52.540;13.410;2023-04-01T01:37:28;98796.16;;;8.81;100.00
52625;BME280;38519;52.540;13.410;2023-04-01T01:39:57;98794.28;;;8.79;100.00
52625;BME280;38519;52.540;13.410;2023-04-01T01:42:25;98792.06;;;8.86;100.00
52625;BME280;38519;52.540;13.410;2023-04-01T01:44:51;98793.41;;;8.78;100.00
52625;BME280;38519;52.540;13.410;2023-04-01T01:47:17;98799.56;;;8.80;100.00
52625;BME280;38519;52.540;13.410;2023-04-01T01:49:44;98800.28;;;8.78;100.00
52625;BME280;38519;52.540;13.410;2023-04-01T01:52:10;98801.19;;;8.78;100.00
52625;BME280;38519;52.540;13.410;2023-04-01T01:54:36;98798.44;;;8.75;100.00
52625;BME280;38519;52.540;13.410;2023-04-01T01:57:06;98795.91;;;8.77;100.00
52625;BME280;38519;52.540;13.410;2023-04-01T01:59:31;98798.44;;;8.75;100.00
52625;BME280;38519;52.540;13.410;2023-04-01T02:01:57;98804.53;;;8.75;100.00
52625;BME280;38519;52.540;13.410;2023-04-01T02:04:23;98802.97;;;8.79;100.00
52625;BME280;38519;52.540;13.410;2023-04-01T02:06:54;98801.28;;;8.80;100.00
52625;BME280;38519;52.540;13.410;2023-04-01T02:09:21;98807.38;;;8.80;100.00
52625;BME280;38519;52.540;13.410;2023-04-01T02:11:56;98804.84;;;8.82;100.00
52625;BME280;38519;52.540;13.410;2023-04-01T02:14:26;98803.34;;;8.87;100.00
52625;BME280;38519;52.540;13.410;2023-04-01T02:19:22;98812.94;;;8.88;100.00
52625;BME280;38519;52.540;13.410;2023-04-01T02:21:51;98807.22;;;8.77;100.00
52625;BME280;38519;52.540;13.410;2023-04-01T02:24:18;98807.22;;;8.77;100.00
52625;BME280;38519;52.540;13.410;2023-04-01T02:26:46;98810.47;;;8.73;100.00
52625;BME280;38519;52.540;13.410;2023-04-01T02:29:12;98807.72;;;8.70;100.00
52625;BME280;38519;52.540;13.410;2023-04-01T02:31:37;98802.16;;;8.62;100.00
52625;BME280;38519;52.540;13.410;2023-04-01T02:34:03;98808.97;;;8.60;100.00
52625;BME280;38519;52.540;13.410;2023-04-01T02:36:29;98806.16;;;8.55;100.00
52625;BME280;38519;52.540;13.410;2023-04-01T02:38:54;98812.16;;;8.54;100.00
52625;BME280;38519;52.540;13.410;2023-04-01T02:41:21;98812.31;;;8.57;100.00
52625;BME280;38519;52.540;13.410;2023-04-01T02:43:46;98808.00;;;8.58;100.00
52625;BME280;38519;52.540;13.410;2023-04-01T02:46:11;98815.16;;;8.62;100.00
52625;BME280;38519;52.540;13.410;2023-04-01T02:48:36;98814.31;;;8.63;100.00
52625;BME280;38519;52.540;13.410;2023-04-01T02:51:02;98814.69;;;8.53;100.00
52625;BME280;38519;52.540;13.410;2023-04-01T02:53:27;98816.69;;;8.59;100.00
52625;BME280;38519;52.540;13.410;2023-04-01T02:55:53;98821.97;;;8.60;100.00
52625;BME280;38519;52.540;13.410;2023-04-01T02:58:18;98823.38;;;8.53;100.00
52625;BME280;38519;52.540;13.410;2023-04-01T03:00:44;98820.53;;;8.49;100.00
52625;BME280;38519;52.540;13.410;2023-04-01T03:03:09;98830.13;;;8.50;100.00
52625;BME280;38519;52.540;13.410;2023-04-01T03:05:35;98823.91;;;8.46;100.00
52625;BME280;38519;52.540;13.410;2023-04-01T03:08:00;98828.19;;;8.46;100.00
52625;BME280;38519;52.540;13.410;2023-04-01T03:10:25;98833.53;;;8.49;100.00
52625;BME280;38519;52.540;13.410;2023-04-01T03:12:51;98832.50;;;8.45;100.00
52625;BME280;38519;52.540;13.410;2023-04-01T03:15:16;98836.81;;;8.45;100.00
52625;BME280;38519;52.540;13.410;2023-04-01T03:17:41;98829.25;;;8.49;100.00
52625;BME280;38519;52.540;13.410;2023-04-01T03:20:07;98823.53;;;8.56;100.00
52625;BME280;38519;52.540;13.410;2023-04-01T03:22:33;98824.66;;;8.62;100.00
52625;BME280;38519;52.540;13.410;2023-04-01T03:24:59;98830.00;;;8.65;100.00
52625;BME280;38519;52.540;13.410;2023-04-01T03:27:25;98833.22;;;8.59;100.00
52625;BME280;38519;52.540;13.410;2023-04-01T03:29:50;98834.81;;;8.57;100.00
52625;BME280;38519;52.540;13.410;2023-04-01T03:32:15;98833.88;;;8.55;100.00
52625;BME280;38519;52.540;13.410;2023-04-01T03:34:40;98838.19;;;8.54;100.00
52625;BME280;38519;52.540;13.410;2023-04-01T03:37:06;98843.38;;;8.54;100.00
52625;BME280;38519;52.540;13.410;2023-04-01T03:39:31;98837.66;;;8.62;100.00
52625;BME280;38519;52.540;13.410;2023-04-01T03:41:56;98842.13;;;8.64;100.00
52625;BME280;38519;52.540;13.410;2023-04-01T03:44:22;98850.19;;;8.69;100.00
52625;BME280;38519;52.540;13.410;2023-04-01T03:46:47;98852.19;;;8.74;100.00
52625;BME280;38519;52.540;13.410;2023-04-01T03:49:12;98852.03;;;8.71;100.00
52625;BME280;38519;52.540;13.410;2023-04-01T03:51:38;98854.53;;;8.70;100.00
52625;BME280;38519;52.540;13.410;2023-04-01T03:54:04;98851.06;;;8.69;100.00
52625;BME280;38519;52.540;13.410;2023-04-01T03:56:29;98852.53;;;8.64;100.00
52625;BME280;38519;52.540;13.410;2023-04-01T03:58:55;98856.03;;;8.65;100.00
52625;BME280;38519;52.540;13.410;2023-04-01T04:01:20;98855.72;;;8.59;100.00
52625;BME280;38519;52.540;13.410;2023-04-01T04:03:46;98861.06;;;8.62;100.00
52625;BME280;38519;52.540;13.410;2023-04-01T04:06:15;98861.16;;;8.63;100.00
52625;BME280;38519;52.540;13.410;2023-04-01T04:08:41;98860.44;;;8.66;100.00
52625;BME280;38519;52.540;13.410;2023-04-01T04:11:07;98866.09;;;8.75;100.00
52625;BME280;38519;52.540;13.410;2023-04-01T04:13:32;98869.03;;;8.81;100.00
52625;BME280;38519;52.540;13.410;2023-04-01T04:15:58;98865.09;;;8.73;100.00
52625;BME280;38519;52.540;13.410;2023-04-01T04:18:23;98869.88;;;8.64;100.00
52625;BME280;38519;52.540;13.410;2023-04-01T04:20:48;98866.19;;;8.77;100.00
52625;BME280;38519;52.540;13.410;2023-04-01T04:23:16;98874.31;;;8.66;100.00
52625;BME280;38519;52.540;13.410;2023-04-01T04:25:41;98873.34;;;8.64;100.00
52625;BME280;38519;52.540;13.410;2023-04-01T04:28:06;98873.03;;;8.58;100.00
52625;BME280;38519;52.540;13.410;2023-04-01T04:30:31;98874.31;;;8.66;100.00
52625;BME280;38519;52.540;13.410;2023-04-01T04:32:57;98874.22;;;8.81;100.00
52625;BME280;38519;52.540;13.410;2023-04-01T04:35:22;98884.75;;;8.84;100.00
52625;BME280;38519;52.540;13.410;2023-04-01T04:37:47;98880.97;;;8.78;100.00
52625;BME280;38519;52.540;13.410;2023-04-01T04:40:12;98885.03;;;8.72;100.00
52625;BME280;38519;52.540;13.410;2023-04-01T04:42:38;98883.53;;;8.60;100.00
52625;BME280;38519;52.540;13.410;2023-04-01T04:45:03;98883.59;;;8.61;100.00
52625;BME280;38519;52.540;13.410;2023-04-01T04:47:28;98893.66;;;8.71;100.00
52625;BME280;38519;52.540;13.410;2023-04-01T04:49:53;98886.06;;;8.58;100.00
52625;BME280;38519;52.540;13.410;2023-04-01T04:52:19;98891.09;;;8.55;100.00
52625;BME280;38519;52.540;13.410;2023-04-01T04:54:44;98894.00;;;8.61;100.00
52625;BME280;38519;52.540;13.410;2023-04-01T04:57:09;98887.53;;;8.53;100.00
52625;BME280;38519;52.540;13.410;2023-04-01T04:59:35;98888.00;;;8.46;100.00
52625;BME280;38519;52.540;13.410;2023-04-01T05:02:01;98888.50;;;8.38;100.00
52625;BME280;38519;52.540;13.410;2023-04-01T05:04:26;98891.00;;;8.53;100.00
52625;BME280;38519;52.540;13.410;2023-04-01T05:06:52;98886.56;;;8.51;100.00
52625;BME280;38519;52.540;13.410;2023-04-01T05:09:17;98888.66;;;8.58;100.00
52625;BME280;38519;52.540;13.410;2023-04-01T05:11:42;98893.44;;;8.50;100.00
52625;BME280;38519;52.540;13.410;2023-04-01T05:14:11;98895.72;;;8.61;100.00
52625;BME280;38519;52.540;13.410;2023-04-01T05:16:37;98903.69;;;8.64;100.00
52625;BME280;38519;52.540;13.410;2023-04-01T05:19:02;98895.28;;;8.69;100.00
52625;BME280;38519;52.540;13.410;2023-04-01T05:21:28;98902.78;;;8.80;100.00
52625;BME280;38519;52.540;13.410;2023-04-01T05:23:53;98904.47;;;8.79;100.00
52625;BME280;38519;52.540;13.410;2023-04-01T05:26:18;98908.34;;;8.87;100.00
52625;BME280;38519;52.540;13.410;2023-04-01T05:28:44;98906.56;;;8.86;100.00
52625;BME280;38519;52.540;13.410;2023-04-01T05:31:09;98909.41;;;8.91;100.00
52625;BME280;38519;52.540;13.410;2023-04-01T05:33:34;98912.00;;;8.91;100.00
52625;BME280;38519;52.540;13.410;2023-04-01T05:36:07;98916.31;;;8.90;100.00
52625;BME280;38519;52.540;13.410;2023-04-01T05:38:32;98912.81;;;8.90;100.00
52625;BME280;38519;52.540;13.410;2023-04-01T05:41:01;98918.91;;;8.90;100.00
52625;BME280;38519;52.540;13.410;2023-04-01T05:43:27;98916.38;;;8.92;100.00
52625;BME280;38519;52.540;13.410;2023-04-01T05:45:52;98918.03;;;8.90;100.00
52625;BME280;38519;52.540;13.410;2023-04-01T05:48:18;98919.81;;;8.91;100.00
52625;BME280;38519;52.540;13.410;2023-04-01T05:50:43;98926.63;;;8.89;100.00
52625;BME280;38519;52.540;13.410;2023-04-01T05:53:08;98925.91;;;8.91;100.00
52625;BME280;38519;52.540;13.410;2023-04-01T05:55:34;98927.78;;;8.94;100.00
52625;BME280;38519;52.540;13.410;2023-04-01T05:58:00;98927.09;;;8.98;100.00
52625;BME280;38519;52.540;13.410;2023-04-01T06:00:25;98933.03;;;8.96;100.00
52625;BME280;38519;52.540;13.410;2023-04-01T06:02:50;98932.91;;;8.92;100.00
52625;BME280;38519;52.540;13.410;2023-04-01T06:05:21;98936.47;;;8.95;100.00
52625;BME280;38519;52.540;13.410;2023-04-01T06:07:47;98936.00;;;8.85;100.00
52625;BME280;38519;52.540;13.410;2023-04-01T06:10:14;98935.72;;;8.97;100.00
52625;BME280;38519;52.540;13.410;2023-04-01T06:12:49;98941.47;;;9.08;100.00
52625;BME280;38519;52.540;13.410;2023-04-01T06:15:20;98940.28;;;9.01;100.00
52625;BME280;38519;52.540;13.410;2023-04-01T06:18:00;98949.06;;;9.03;100.00
52625;BME280;38519;52.540;13.410;2023-04-01T06:25:36;98948.97;;;9.02;100.00
52625;BME280;38519;52.540;13.410;2023-04-01T06:45:56;98972.81;;;9.09;100.00
52625;BME280;38519;52.540;13.410;2023-04-01T06:48:34;98969.34;;;8.92;100.00
52625;BME280;38519;52.540;13.410;2023-04-01T06:51:26;98972.81;;;9.09;100.00
52625;BME280;38519;52.540;13.410;2023-04-01T06:54:07;98970.66;;;9.19;100.00
52625;BME280;38519;52.540;13.410;2023-04-01T06:56:34;98978.63;;;9.22;100.00
52625;BME280;38519;52.540;13.410;2023-04-01T06:59:03;98976.19;;;9.25;100.00
52625;BME280;38519;52.540;13.410;2023-04-01T07:01:33;98973.50;;;9.23;100.00
52625;BME280;38519;52.540;13.410;2023-04-01T07:04:00;98982.44;;;9.28;100.00
52625;BME280;38519;52.540;13.410;2023-04-01T07:06:30;98982.44;;;9.28;100.00
52625;BME280;38519;52.540;13.410;2023-04-01T07:08:57;98976.13;;;9.23;100.00
52625;BME280;38519;52.540;13.410;2023-04-01T07:11:34;98985.00;;;9.10;100.00
52625;BME280;38519;52.540;13.410;2023-04-01T07:14:05;98981.22;;;9.04;100.00
52625;BME280;38519;52.540;13.410;2023-04-01T07:16:43;98986.06;;;9.14;100.00
52625;BME280;38519;52.540;13.410;2023-04-01T07:21:44;98988.22;;;9.23;100.00
52625;BME280;38519;52.540;13.410;2023-04-01T07:24:13;98988.22;;;9.23;100.00
52625;BME280;38519;52.540;13.410;2023-04-01T07:26:41;98993.06;;;9.15;100.00
52625;BME280;38519;52.540;13.410;2023-04-01T07:29:09;98991.91;;;9.26;100.00
52625;BME280;38519;52.540;13.410;2023-04-01T07:34:19;98998.88;;;9.27;100.00
52625;BME280;38519;52.540;13.410;2023-04-01T07:39:28;99004.16;;;9.29;100.00
52625;BME280;38519;52.540;13.410;2023-04-01T07:49:29;99013.22;;;9.19;100.00
52625;BME280;38519;52.540;13.410;2023-04-01T07:52:01;99008.84;;;9.18;100.00
52625;BME280;38519;52.540;13.410;2023-04-01T08:07:23;99025.16;;;8.98;100.00
52625;BME280;38519;52.540;13.410;2023-04-01T08:09:55;99030.13;;;8.77;100.00
52625;BME280;38519;52.540;13.410;2023-04-01T08:22:52;99042.81;;;8.70;100.00
52625;BME280;38519;52.540;13.410;2023-04-01T08:25:28;99042.56;;;8.66;100.00
52625;BME280;38519;52.540;13.410;2023-04-01T08:27:59;99042.72;;;8.52;100.00
52625;BME280;38519;52.540;13.410;2023-04-01T08:30:26;99048.09;;;8.55;100.00
52625;BME280;38519;52.540;13.410;2023-04-01T08:32:54;99043.94;;;8.59;100.00
52625;BME280;38519;52.540;13.410;2023-04-01T08:35:28;99054.91;;;8.70;100.00
52625;BME280;38519;52.540;13.410;2023-04-01T08:37:56;99057.13;;;8.62;100.00
52625;BME280;38519;52.540;13.410;2023-04-01T08:48:48;99068.19;;;8.27;100.00
52625;BME280;38519;52.540;13.410;2023-04-01T08:51:36;99060.47;;;8.13;100.00
52625;BME280;38519;52.540;13.410;2023-04-01T08:54:26;99067.47;;;8.14;100.00
52625;BME280;38519;52.540;13.410;2023-04-01T08:57:03;99064.69;;;8.43;100.00
52625;BME280;38519;52.540;13.410;2023-04-01T08:59:40;99074.66;;;8.66;100.00
52625;BME280;38519;52.540;13.410;2023-04-01T09:17:56;99084.03;;;8.79;100.00
52625;BME280;38519;52.540;13.410;2023-04-01T09:20:44;99089.50;;;8.21;100.00
52625;BME280;38519;52.540;13.410;2023-04-01T09:25:53;99100.56;;;8.80;100.00
52625;BME280;38519;52.540;13.410;2023-04-01T09:36:44;99105.06;;;8.51;100.00
52625;BME280;38519;52.540;13.410;2023-04-01T09:57:18;99126.97;;;8.39;100.00
52625;BME280;38519;52.540;13.410;2023-04-01T10:22:29;99154.13;;;7.83;100.00
52625;BME280;38519;52.540;13.410;2023-04-01T10:25:14;99155.69;;;7.81;100.00
52625;BME280;38519;52.540;13.410;2023-04-01T10:53:38;99174.44;;;7.61;100.00
52625;BME280;38519;52.540;13.410;2023-04-01T11:01:36;99176.94;;;7.74;100.00
52625;BME280;38519;52.540;13.410;2023-04-01T11:25:11;99194.50;;;7.63;100.00
52625;BME280;38519;52.540;13.410;2023-04-01T11:27:46;99197.00;;;7.62;100.00
52625;BME280;38519;52.540;13.410;2023-04-01T11:45:39;99223.88;;;7.62;100.00
52625;BME280;38519;52.540;13.410;2023-04-01T11:48:13;99220.22;;;7.74;100.00
52625;BME280;38519;52.540;13.410;2023-04-01T11:53:41;99234.56;;;7.39;100.00
52625;BME280;38519;52.540;13.410;2023-04-01T11:56:13;99237.06;;;7.37;100.00
52625;BME280;38519;52.540;13.410;2023-04-01T11:58:44;99247.25;;;7.34;100.00
52625;BME280;38519;52.540;13.410;2023-04-01T12:11:38;99252.56;;;7.36;100.00
52625;BME280;38519;52.540;13.410;2023-04-01T12:14:21;99257.84;;;7.37;100.00
52625;BME280;38519;52.540;13.410;2023-04-01T12:19:26;99265.78;;;7.12;100.00
52625;BME280;38519;52.540;13.410;2023-04-01T12:22:12;99270.69;;;7.21;100.00
52625;BME280;38519;52.540;13.410;2023-04-01T12:43:09;99286.25;;;7.07;100.00
52625;BME280;38519;52.540;13.410;2023-04-01T12:45:33;99291.88;;;6.87;100.00
52625;BME280;38519;52.540;13.410;2023-04-01T12:50:56;99299.75;;;6.88;100.00
52625;BME280;38519;52.540;13.410;2023-04-01T12:55:49;99304.44;;;6.94;100.00
52625;BME280;38519;52.540;13.410;2023-04-01T13:06:20;99310.72;;;6.98;100.00
52625;BME280;38519;52.540;13.410;2023-04-01T13:11:51;99319.22;;;6.82;100.00
52625;BME280;38519;52.540;13.410;2023-04-01T13:19:32;99327.59;;;6.91;100.00
52625;BME280;38519;52.540;13.410;2023-04-01T13:27:44;99343.88;;;6.75;100.00
52625;BME280;38519;52.540;13.410;2023-04-01T13:32:36;99352.63;;;6.64;100.00
52625;BME280;38519;52.540;13.410;2023-04-01T13:35:18;99353.25;;;6.73;100.00
52625;BME280;38519;52.540;13.410;2023-04-01T13:43:11;99360.97;;;6.46;100.00
52625;BME280;38519;52.540;13.410;2023-04-01T13:48:11;99367.63;;;6.81;100.00
52625;BME280;38519;52.540;13.410;2023-04-01T13:53:40;99366.94;;;6.97;100.00
52625;BME280;38519;52.540;13.410;2023-04-01T14:03:42;99383.56;;;6.74;100.00
52625;BME280;38519;52.540;13.410;2023-04-01T14:06:23;99379.97;;;6.72;100.00
52625;BME280;38519;52.540;13.410;2023-04-01T14:11:18;99387.97;;;6.75;100.00
52625;BME280;38519;52.540;13.410;2023-04-01T14:14:11;99391.97;;;6.83;100.00
52625;BME280;38519;52.540;13.410;2023-04-01T14:19:34;99396.56;;;6.87;100.00
52625;BME280;38519;52.540;13.410;2023-04-01T14:24:55;99405.56;;;6.92;100.00
52625;BME280;38519;52.540;13.410;2023-04-01T14:27:32;99409.03;;;6.80;100.00
52625;BME280;38519;52.540;13.410;2023-04-01T14:32:43;99418.09;;;6.73;100.00
52625;BME280;38519;52.540;13.410;2023-04-01T14:40:21;99421.63;;;6.48;100.00
52625;BME280;38519;52.540;13.410;2023-04-01T14:52:55;99432.94;;;6.37;100.00
52625;BME280;38519;52.540;13.410;2023-04-01T14:55:31;99439.38;;;6.42;100.00
52625;BME280;38519;52.540;13.410;2023-04-01T14:57:58;99443.59;;;6.28;100.00
52625;BME280;38519;52.540;13.410;2023-04-01T15:00:24;99442.28;;;6.22;100.00
52625;BME280;38519;52.540;13.410;2023-04-01T15:03:02;99440.09;;;6.03;100.00
52625;BME280;38519;52.540;13.410;2023-04-01T15:05:46;99440.00;;;6.26;100.00
52625;BME280;38519;52.540;13.410;2023-04-01T15:08:23;99455.50;;;6.38;100.00
52625;BME280;38519;52.540;13.410;2023-04-01T15:26:12;99485.50;;;5.74;100.00
52625;BME280;38519;52.540;13.410;2023-04-01T15:28:49;99478.75;;;5.76;100.00
52625;BME280;38519;52.540;13.410;2023-04-01T15:39:24;99491.38;;;5.71;100.00
52625;BME280;38519;52.540;13.410;2023-04-01T15:47:38;99508.34;;;5.79;100.00
52625;BME280;38519;52.540;13.410;2023-04-01T15:50:21;99513.34;;;5.76;100.00
52625;BME280;38519;52.540;13.410;2023-04-01T16:00:52;99526.06;;;5.61;100.00
52625;BME280;38519;52.540;13.410;2023-04-01T16:15:58;99557.22;;;5.27;100.00
52625;BME280;38519;52.540;13.410;2023-04-01T16:26:13;99584.63;;;5.47;100.00
52625;BME280;38519;52.540;13.410;2023-04-01T16:28:42;99569.84;;;5.35;100.00
52625;BME280;38519;52.540;13.410;2023-04-01T16:31:15;99587.03;;;5.34;100.00
52625;BME280;38519;52.540;13.410;2023-04-01T16:44:28;99600.44;;;5.28;100.00
52625;BME280;38519;52.540;13.410;2023-04-01T16:46:57;99600.84;;;5.11;100.00
52625;BME280;38519;52.540;13.410;2023-04-01T16:52:30;99616.09;;;4.96;100.00
52625;BME280;38519;52.540;13.410;2023-04-01T16:55:18;99617.53;;;4.92;100.00
52625;BME280;38519;52.540;13.410;2023-04-01T16:58:18;99615.06;;;4.94;100.00
52625;BME280;38519;52.540;13.410;2023-04-01T17:03:16;99635.41;;;4.89;100.00
52625;BME280;38519;52.540;13.410;2023-04-01T17:05:50;99637.97;;;4.89;100.00
52625;BME280;38519;52.540;13.410;2023-04-01T17:11:05;99649.13;;;4.88;100.00
52625;BME280;38519;52.540;13.410;2023-04-01T17:13:46;99657.06;;;4.80;100.00
52625;BME280;38519;52.540;13.410;2023-04-01T17:16:20;99661.66;;;4.72;100.00
52625;BME280;38519;52.540;13.410;2023-04-01T17:18:57;99660.00;;;4.62;100.00
52625;BME280;38519;52.540;13.410;2023-04-01T17:28:57;99681.16;;;4.46;100.00
52625;BME280;38519;52.540;13.410;2023-04-01T17:31:31;99683.00;;;4.37;100.00
52625;BME280;38519;52.540;13.410;2023-04-01T17:54:47;99727.16;;;4.08;100.00
52625;BME280;38519;52.540;13.410;2023-04-01T18:00:19;99737.59;;;4.09;100.00
52625;BME280;38519;52.540;13.410;2023-04-01T18:20:43;99767.84;;;4.00;100.00
52625;BME280;38519;52.540;13.410;2023-04-01T18:25:39;99780.09;;;3.82;100.00
52625;BME280;38519;52.540;13.410;2023-04-01T18:28:21;99784.88;;;3.88;100.00
52625;BME280;38519;52.540;13.410;2023-04-01T18:30:50;99788.63;;;3.81;100.00
52625;BME280;38519;52.540;13.410;2023-04-01T18:43:42;99816.66;;;3.76;100.00
52625;BME280;38519;52.540;13.410;2023-04-01T18:46:21;99821.41;;;3.82;100.00
52625;BME280;38519;52.540;13.410;2023-04-01T18:51:35;99839.25;;;3.89;100.00
52625;BME280;38519;52.540;13.410;2023-04-01T18:54:10;99840.28;;;3.91;100.00
52625;BME280;38519;52.540;13.410;2023-04-01T18:56:37;99847.00;;;3.89;100.00
52625;BME280;38519;52.540;13.410;2023-04-01T18:59:04;99849.59;;;3.79;100.00
52625;BME280;38519;52.540;13.410;2023-04-01T19:01:39;99854.47;;;3.76;100.00
52625;BME280;38519;52.540;13.410;2023-04-01T19:06:42;99860.41;;;3.64;100.00
52625;BME280;38519;52.540;13.410;2023-04-01T19:09:31;99861.16;;;3.63;100.00
52625;BME280;38519;52.540;13.410;2023-04-01T19:17:06;99872.50;;;3.55;100.00
52625;BME280;38519;52.540;13.410;2023-04-01T19:22:06;99868.09;;;3.54;100.00
52625;BME280;38519;52.540;13.410;2023-04-01T19:24:43;99880.41;;;3.67;100.00
52625;BME280;38519;52.540;13.410;2023-04-01T19:34:51;99891.78;;;3.30;100.00
52625;BME280;38519;52.540;13.410;2023-04-01T19:42:19;99896.53;;;3.25;100.00
52625;BME280;38519;52.540;13.410;2023-04-01T19:50:01;99908.59;;;3.16;100.00
52625;BME280;38519;52.540;13.410;2023-04-01T19:52:33;99926.81;;;3.17;100.00
52625;BME280;38519;52.540;13.410;2023-04-01T19:55:03;99923.47;;;3.18;100.00
52625;BME280;38519;52.540;13.410;2023-04-01T19:57:52;99924.97;;;3.16;100.00
52625;BME280;38519;52.540;13.410;2023-04-01T20:00:37;99931.69;;;3.14;100.00
52625;BME280;38519;52.540;13.410;2023-04-01T20:10:52;99953.59;;;3.09;100.00
52625;BME280;38519;52.540;13.410;2023-04-01T20:13:25;99955.41;;;3.10;100.00
52625;BME280;38519;52.540;13.410;2023-04-01T20:16:03;99966.72;;;3.02;100.00
52625;BME280;38519;52.540;13.410;2023-04-01T20:21:16;99972.25;;;3.06;100.00
52625;BME280;38519;52.540;13.410;2023-04-01T20:23:50;99980.00;;;3.06;100.00
52625;BME280;38519;52.540;13.410;2023-04-01T20:26:31;99984.50;;;2.99;100.00
52625;BME280;38519;52.540;13.410;2023-04-01T20:31:34;99996.25;;;2.86;100.00
52625;BME280;38519;52.540;13.410;2023-04-01T20:34:19;100003.16;;;2.96;100.00
52625;BME280;38519;52.540;13.410;2023-04-01T20:50:18;100021.75;;;2.83;100.00
52625;BME280;38519;52.540;13.410;2023-04-01T20:53:32;100026.91;;;2.83;100.00
52625;BME280;38519;52.540;13.410;2023-04-01T21:00:41;100034.94;;;2.86;100.00
52625;BME280;38519;52.540;13.410;2023-04-01T21:11:00;100052.03;;;2.95;100.00
52625;BME280;38519;52.540;13.410;2023-04-01T21:16:54;100065.75;;;2.85;100.00
52625;BME280;38519;52.540;13.410;2023-04-01T21:19:12;100066.28;;;2.72;100.00
52625;BME280;38519;52.540;13.410;2023-04-01T21:21:50;100068.78;;;2.81;100.00
52625;BME280;38519;52.540;13.410;2023-04-01T21:37:33;100099.50;;;2.69;100.00
52625;BME280;38519;52.540;13.410;2023-04-01T21:40:18;100101.50;;;2.63;100.00
52625;BME280;38519;52.540;13.410;2023-04-01T21:42:57;100104.56;;;2.59;100.00
52625;BME280;38519;52.540;13.410;2023-04-01T21:55:47;100131.53;;;2.62;100.00
52625;BME280;38519;52.540;13.410;2023-04-01T21:59:09;100128.19;;;2.63;100.00
52625;BME280;38519;52.540;13.410;2023-04-01T22:06:18;100145.66;;;2.57;100.00
52625;BME280;38519;52.540;13.410;2023-04-01T22:13:48;100150.97;;;2.50;100.00
52625;BME280;38519;52.540;13.410;2023-04-01T22:18:46;100165.53;;;2.49;100.00
52625;BME280;38519;52.540;13.410;2023-04-01T22:21:18;100167.31;;;2.50;100.00
52625;BME280;38519;52.540;13.410;2023-04-01T22:23:58;100178.72;;;2.52;100.00
52625;BME280;38519;52.540;13.410;2023-04-01T22:26:33;100176.00;;;2.51;100.00
52625;BME280;38519;52.540;13.410;2023-04-01T22:31:28;100183.88;;;2.44;100.00
52625;BME280;38519;52.540;13.410;2023-04-01T22:34:17;100184.50;;;2.41;100.00
52625;BME280;38519;52.540;13.410;2023-04-01T22:44:02;100202.53;;;2.41;100.00
52625;BME280;38519;52.540;13.410;2023-04-01T22:46:40;100205.56;;;2.37;100.00
52625;BME280;38519;52.540;13.410;2023-04-01T22:49:17;100207.69;;;2.41;100.00
52625;BME280;38519;52.540;13.410;2023-04-01T22:51:53;100203.78;;;2.36;100.00
52625;BME280;38519;52.540;13.410;2023-04-01T22:54:25;100205.41;;;2.35;100.00
52625;BME280;38519;52.540;13.410;2023-04-01T22:56:57;100215.28;;;2.40;100.00
52625;BME280;38519;52.540;13.410;2023-04-01T22:59:29;100213.78;;;2.33;100.00
52625;BME280;38519;52.540;13.410;2023-04-01T23:02:01;100218.16;;;2.43;100.00